Time;durP1;ratioP1;P1;durP2;ratioP2;P2;SDS_P1;SDS_P2;PMS_P1;PMS_P2;Temp;Humidity;BMP_temperature;BMP_pressure;BME280_temperature;BME280_humidity;BME280_pressure;Samples;Min_cycle;Max_cycle;Signal;HPM_P1;HPM_P2
2023/08/19 00:00:06;;;;;;;8.98;4.82;;;;;;;;;;2606829;22;20056;-90
2023/08/19 00:01:07;;;;;;;6.72;4.03;;;;;;;;;;2608205;22;20006;-90
2023/08/19 00:02:07;;;;;;;4.50;4.10;;;;;;;;;;2606601;22;19999;-90
2023/08/19 00:03:07;;;;;;;7.00;5.13;;;;;;;;;;2606564;22;20086;-90
2023/08/19 00:04:08;;;;;;;7.55;4.07;;;;;;;;;;2593794;22;20516;-90
2023/08/19 00:05:09;;;;;;;9.13;4.37;;;;;;;;;;2143975;23;10003860;-90
2023/08/19 00:06:30;;;;;;;5.05;4.00;;;;;;;;;;2603074;22;20429;-87
2023/08/19 00:07:31;;;;;;;4.85;4.18;;;;;;;;;;2614618;22;19999;-91
2023/08/19 00:08:32;;;;;;;6.03;4.07;;;;;;;;;;2606918;22;20034;-91
2023/08/19 00:09:36;;;;;;;6.38;4.40;;;;;;;;;;2581328;23;20059;-91
2023/08/19 00:10:36;;;;;;;7.18;4.50;;;;;;;;;;2585930;22;20000;-91
2023/08/19 00:11:39;;;;;;;6.82;4.82;;;;;;;;;;2581498;23;20004;-91
2023/08/19 00:12:39;;;;;;;8.50;4.53;;;;;;;;;;2597977;22;19995;-91
2023/08/19 00:13:39;;;;;;;5.97;4.28;;;;;;;;;;2598484;22;20079;-91
2023/08/19 00:14:40;;;;;;;7.32;4.50;;;;;;;;;;2593533;22;20093;-91
2023/08/19 00:15:40;;;;;;;6.90;4.28;;;;;;;;;;2581343;23;20000;-91
2023/08/19 00:16:40;;;;;;;6.60;4.32;;;;;;;;;;2581444;23;20004;-91
2023/08/19 00:17:41;;;;;;;6.38;4.53;;;;;;;;;;2580883;23;19996;-90
2023/08/19 00:18:41;;;;;;;6.00;4.18;;;;;;;;;;2597348;22;20557;-90
2023/08/19 00:19:42;;;;;;;6.40;4.05;;;;;;;;;;2606460;22;20003;-91
2023/08/19 00:20:42;;;;;;;7.07;4.43;;;;;;;;;;2606437;22;20498;-91
2023/08/19 00:21:42;;;;;;;5.47;4.70;;;;;;;;;;2610577;22;19991;-91
2023/08/19 00:22:43;;;;;;;7.10;4.78;;;;;;;;;;2607401;22;20105;-91
2023/08/19 00:23:43;;;;;;;8.43;5.03;;;;;;;;;;2598140;22;19996;-91
2023/08/19 00:24:44;;;;;;;7.13;4.38;;;;;;;;;;2581625;23;20000;-91
2023/08/19 00:25:46;;;;;;;8.48;4.50;;;;;;;;;;2581904;23;20006;-91
2023/08/19 00:26:46;;;;;;;6.43;4.57;;;;;;;;;;2597892;22;19995;-90
2023/08/19 00:27:47;;;;;;;6.72;4.43;;;;;;;;;;2594717;22;19996;-91
2023/08/19 00:28:47;;;;;;;7.13;4.50;;;;;;;;;;2597856;22;20410;-91
2023/08/19 00:29:47;;;;;;;4.70;4.00;;;;;;;;;;2598156;22;20070;-90
2023/08/19 00:30:48;;;;;;;5.95;3.97;;;;;;;;;;2594194;22;20095;-90
2023/08/19 00:31:48;;;;;;;6.68;4.47;;;;;;;;;;2597311;22;20425;-90
2023/08/19 00:32:49;;;;;;;5.22;4.32;;;;;;;;;;2598266;22;20003;-90
2023/08/19 00:33:49;;;;;;;7.60;4.18;;;;;;;;;;2594351;22;20286;-90
2023/08/19 00:34:49;;;;;;;5.85;3.95;;;;;;;;;;2594395;22;20056;-89
2023/08/19 00:35:52;;;;;;;4.97;3.80;;;;;;;;;;2594411;22;20074;-90
2023/08/19 00:36:54;;;;;;;5.55;4.10;;;;;;;;;;2597329;22;20089;-90
2023/08/19 00:37:54;;;;;;;7.20;4.07;;;;;;;;;;2594344;22;20022;-90
2023/08/19 00:38:54;;;;;;;6.35;4.18;;;;;;;;;;2596906;22;20003;-90
2023/08/19 00:39:55;;;;;;;6.50;4.20;;;;;;;;;;2594127;22;20086;-90
2023/08/19 00:40:55;;;;;;;9.57;4.72;;;;;;;;;;2581925;23;20139;-91
2023/08/19 00:41:56;;;;;;;5.82;4.60;;;;;;;;;;2581865;23;20003;-90
2023/08/19 00:42:56;;;;;;;6.85;4.38;;;;;;;;;;2594455;22;20047;-90
2023/08/19 00:43:57;;;;;;;6.00;4.18;;;;;;;;;;2581733;23;20031;-90
2023/08/19 00:44:58;;;;;;;7.35;3.97;;;;;;;;;;2581521;23;20015;-90
2023/08/19 00:45:59;;;;;;;7.15;4.70;;;;;;;;;;2596958;22;20008;-90
2023/08/19 00:47:03;;;;;;;5.88;3.60;;;;;;;;;;2597662;22;20011;-90
2023/08/19 00:48:06;;;;;;;5.88;3.70;;;;;;;;;;2597376;22;20076;-91
2023/08/19 00:49:07;;;;;;;4.20;3.60;;;;;;;;;;2607126;22;20026;-91
2023/08/19 00:50:10;;;;;;;8.95;3.75;;;;;;;;;;2609223;22;20007;-90
2023/08/19 00:51:10;;;;;;;5.28;3.75;;;;;;;;;;2597513;22;20020;-90
2023/08/19 00:52:11;;;;;;;6.90;4.60;;;;;;;;;;2597723;22;20330;-90
2023/08/19 00:53:13;;;;;;;5.32;3.78;;;;;;;;;;2602171;22;20060;-88
2023/08/19 00:54:14;;;;;;;8.50;4.20;;;;;;;;;;2599093;22;20011;-91
2023/08/19 00:55:14;;;;;;;4.97;4.15;;;;;;;;;;2594522;22;20068;-90
2023/08/19 00:56:15;;;;;;;8.98;3.85;;;;;;;;;;2607419;22;20027;-91
2023/08/19 00:57:16;;;;;;;5.47;3.90;;;;;;;;;;2582454;23;20004;-90
2023/08/19 00:58:18;;;;;;;6.72;3.75;;;;;;;;;;2582152;23;20007;-91
2023/08/19 00:59:18;;;;;;;4.60;3.50;;;;;;;;;;2595008;22;20013;-91
2023/08/19 01:00:19;;;;;;;4.68;3.80;;;;;;;;;;2581910;23;20047;-90
2023/08/19 01:01:21;;;;;;;6.43;3.83;;;;;;;;;;2581868;23;20031;-91
2023/08/19 01:02:21;;;;;;;5.70;3.38;;;;;;;;;;2594701;22;20000;-90
2023/08/19 01:04:32;;;;;;;6.90;3.65;;;;;;;;;;2575478;22;20091;-89
2023/08/19 01:06:07;;;;;;;5.40;3.38;;;;;;;;;;2599528;22;20010;-90
2023/08/19 01:07:17;;;;;;;5.32;3.53;;;;;;;;;;2531861;23;20153;-90
2023/08/19 01:08:25;;;;;;;5.22;3.83;;;;;;;;;;2575709;22;20027;-89
2023/08/19 01:09:36;;;;;;;7.82;3.35;;;;;;;;;;2581876;23;20008;-91
2023/08/19 01:10:47;;;;;;;6.53;4.13;;;;;;;;;;2587746;22;19996;-91
2023/08/19 01:12:03;;;;;;;5.75;3.90;;;;;;;;;;2594540;22;20022;-90
2023/08/19 01:13:14;;;;;;;4.45;3.28;;;;;;;;;;2591183;22;20015;-91
2023/08/19 01:14:31;;;;;;;5.47;3.35;;;;;;;;;;2571643;23;20468;-91
2023/08/19 01:15:39;;;;;;;5.30;3.13;;;;;;;;;;2585231;22;20015;-92
2023/08/19 01:16:43;;;;;;;4.05;3.17;;;;;;;;;;2598231;22;20467;-91
2023/08/19 01:17:45;;;;;;;5.47;3.65;;;;;;;;;;2598726;22;20003;-90
2023/08/19 01:18:45;;;;;;;3.80;2.80;;;;;;;;;;2598612;22;20003;-90
2023/08/19 01:19:48;;;;;;;5.82;3.33;;;;;;;;;;2594595;22;20003;-90
2023/08/19 01:20:50;;;;;;;6.15;3.45;;;;;;;;;;2597640;22;20113;-91
2023/08/19 01:21:57;;;;;;;5.47;3.30;;;;;;;;;;2582179;23;20026;-90
2023/08/19 01:23:11;;;;;;;5.88;3.80;;;;;;;;;;2582104;23;20117;-90
2023/08/19 01:24:14;;;;;;;5.57;3.72;;;;;;;;;;2572518;23;20000;-90
2023/08/19 01:25:16;;;;;;;6.50;3.38;;;;;;;;;;2582738;22;20008;-91
2023/08/19 01:26:17;;;;;;;5.57;3.78;;;;;;;;;;2596689;22;20082;-90
2023/08/19 01:27:25;;;;;;;7.40;3.88;;;;;;;;;;2596549;22;20090;-90
2023/08/19 01:28:26;;;;;;;9.25;3.75;;;;;;;;;;2596157;22;19996;-91
2023/08/19 01:29:26;;;;;;;6.82;3.47;;;;;;;;;;2576802;23;20005;-90
2023/08/19 01:30:28;;;;;;;4.07;3.42;;;;;;;;;;2578583;23;20088;-90
2023/08/19 01:31:29;;;;;;;5.78;3.63;;;;;;;;;;2571089;23;20035;-91
2023/08/19 01:32:29;;;;;;;3.75;3.30;;;;;;;;;;2589246;22;20003;-91
2023/08/19 01:33:31;;;;;;;5.28;3.33;;;;;;;;;;2594044;22;20130;-92
2023/08/19 01:34:34;;;;;;;4.18;3.72;;;;;;;;;;2234841;23;10229683;-92
2023/08/19 01:35:42;;;;;;;3.50;3.05;;;;;;;;;;2560214;23;20229;-92
2023/08/19 01:36:48;;;;;;;4.72;3.30;;;;;;;;;;2562796;23;20000;-91
2023/08/19 01:38:05;;;;;;;5.25;3.58;;;;;;;;;;2570820;23;20095;-91
2023/08/19 01:39:09;;;;;;;4.95;3.55;;;;;;;;;;2578284;23;20105;-91
2023/08/19 01:40:13;;;;;;;9.02;3.42;;;;;;;;;;2580092;23;19989;-88
2023/08/19 01:41:15;;;;;;;5.60;3.47;;;;;;;;;;2571866;23;20130;-91
2023/08/19 01:42:17;;;;;;;3.67;3.30;;;;;;;;;;2569872;23;19997;-91
2023/08/19 01:43:18;;;;;;;4.78;3.70;;;;;;;;;;2582502;22;20008;-92
2023/08/19 01:44:19;;;;;;;5.55;3.80;;;;;;;;;;2582133;23;20390;-90
2023/08/19 01:45:20;;;;;;;5.82;3.50;;;;;;;;;;2569607;23;20064;-90
2023/08/19 01:46:21;;;;;;;5.85;3.70;;;;;;;;;;2582501;22;20011;-89
2023/08/19 01:47:21;;;;;;;5.63;3.55;;;;;;;;;;2595960;22;20028;-89
2023/08/19 01:48:22;;;;;;;4.93;3.40;;;;;;;;;;2582008;23;20001;-90
2023/08/19 01:49:23;;;;;;;5.05;3.83;;;;;;;;;;2583010;23;20004;-90
2023/08/19 01:50:23;;;;;;;4.97;3.45;;;;;;;;;;2594575;22;20286;-89
2023/08/19 01:51:23;;;;;;;5.57;3.30;;;;;;;;;;2594933;22;20766;-89
2023/08/19 01:52:24;;;;;;;3.70;3.30;;;;;;;;;;2582483;23;20399;-90
2023/08/19 01:53:24;;;;;;;6.18;3.60;;;;;;;;;;2583366;23;20071;-89
2023/08/19 01:54:25;;;;;;;4.95;3.50;;;;;;;;;;2596836;22;20053;-89
2023/08/19 01:55:25;;;;;;;5.15;3.42;;;;;;;;;;2596443;22;20537;-91
2023/08/19 01:56:25;;;;;;;6.38;3.08;;;;;;;;;;2595853;22;20023;-91
2023/08/19 01:57:27;;;;;;;5.18;3.65;;;;;;;;;;2581741;23;20027;-90
2023/08/19 01:58:27;;;;;;;4.45;3.45;;;;;;;;;;2582199;22;20828;-90
2023/08/19 01:59:28;;;;;;;4.10;3.70;;;;;;;;;;2581556;23;20073;-91
2023/08/19 02:00:28;;;;;;;5.43;3.28;;;;;;;;;;2569204;23;20016;-90
2023/08/19 02:01:28;;;;;;;3.55;3.03;;;;;;;;;;2581753;23;20036;-90
2023/08/19 02:02:29;;;;;;;4.70;3.30;;;;;;;;;;2581554;23;20128;-90
2023/08/19 02:03:30;;;;;;;6.10;3.65;;;;;;;;;;2595187;22;20079;-90
2023/08/19 02:04:30;;;;;;;4.57;3.05;;;;;;;;;;2581348;23;20531;-90
2023/08/19 02:05:30;;;;;;;4.18;3.20;;;;;;;;;;2568885;23;20045;-90
2023/08/19 02:06:31;;;;;;;5.93;3.05;;;;;;;;;;2581530;23;20031;-89
2023/08/19 02:07:31;;;;;;;6.78;3.40;;;;;;;;;;2599194;22;20000;-89
2023/08/19 02:08:32;;;;;;;4.68;3.45;;;;;;;;;;2580867;23;20011;-89
2023/08/19 02:09:32;;;;;;;4.82;3.25;;;;;;;;;;2581279;23;20101;-90
2023/08/19 02:10:33;;;;;;;4.20;3.15;;;;;;;;;;2598157;22;19995;-90
2023/08/19 02:11:33;;;;;;;4.80;3.60;;;;;;;;;;2581510;22;20020;-89
2023/08/19 02:12:33;;;;;;;3.67;2.80;;;;;;;;;;2568956;23;20004;-90
2023/08/19 02:13:34;;;;;;;7.55;3.55;;;;;;;;;;2568939;23;19996;-91
2023/08/19 02:14:34;;;;;;;8.82;3.53;;;;;;;;;;2568832;23;19993;-91
2023/08/19 02:15:35;;;;;;;8.90;3.78;;;;;;;;;;2581326;23;19992;-91
2023/08/19 02:16:35;;;;;;;4.88;2.80;;;;;;;;;;2581434;23;20256;-91
2023/08/19 02:17:36;;;;;;;3.60;3.10;;;;;;;;;;2568890;23;20288;-91
2023/08/19 02:18:36;;;;;;;4.53;3.55;;;;;;;;;;2568955;23;19993;-91
2023/08/19 02:19:36;;;;;;;3.95;3.10;;;;;;;;;;2585225;23;20011;-91
2023/08/19 02:20:37;;;;;;;5.10;3.15;;;;;;;;;;2598720;22;19992;-91
2023/08/19 02:21:37;;;;;;;5.13;3.10;;;;;;;;;;2581301;23;20042;-91
2023/08/19 02:22:39;;;;;;;5.75;3.35;;;;;;;;;;2585024;23;20051;-90
2023/08/19 02:23:39;;;;;;;5.97;3.40;;;;;;;;;;2581089;23;20389;-90
2023/08/19 02:24:40;;;;;;;5.70;3.25;;;;;;;;;;2584957;23;20042;-89
2023/08/19 02:25:40;;;;;;;4.97;3.08;;;;;;;;;;2583431;23;20099;-90
2023/08/19 02:26:41;;;;;;;5.07;3.17;;;;;;;;;;2574090;23;19992;-87
2023/08/19 02:27:42;;;;;;;6.28;2.85;;;;;;;;;;2571834;23;20051;-90
2023/08/19 02:28:43;;;;;;;4.07;3.20;;;;;;;;;;2568982;23;20078;-90
2023/08/19 02:29:43;;;;;;;3.92;2.85;;;;;;;;;;2581413;23;20437;-89
2023/08/19 02:30:43;;;;;;;5.03;2.90;;;;;;;;;;2581441;23;20557;-91
2023/08/19 02:31:44;;;;;;;4.43;3.50;;;;;;;;;;2581312;23;20089;-91
2023/08/19 02:32:44;;;;;;;5.07;3.20;;;;;;;;;;2568989;23;20551;-90
2023/08/19 02:33:44;;;;;;;3.40;2.80;;;;;;;;;;2585029;23;20342;-90
2023/08/19 02:34:45;;;;;;;6.25;3.40;;;;;;;;;;2598350;22;19988;-90
2023/08/19 02:35:50;;;;;;;4.85;3.20;;;;;;;;;;2594305;22;19992;-91
2023/08/19 02:36:50;;;;;;;3.50;2.75;;;;;;;;;;2597147;22;20017;-89
2023/08/19 02:37:50;;;;;;;5.35;3.03;;;;;;;;;;2597650;22;19987;-89
2023/08/19 02:38:51;;;;;;;7.18;3.17;;;;;;;;;;2597634;22;20637;-88
2023/08/19 02:39:51;;;;;;;4.40;2.70;;;;;;;;;;2593960;22;20066;-90
2023/08/19 02:40:52;;;;;;;5.38;2.90;;;;;;;;;;2597122;22;20478;-91
2023/08/19 02:41:54;;;;;;;8.07;3.50;;;;;;;;;;2568875;23;20011;-90
2023/08/19 02:42:54;;;;;;;7.60;3.35;;;;;;;;;;2568767;23;20012;-91
2023/08/19 02:43:55;;;;;;;3.05;2.65;;;;;;;;;;2568846;23;20013;-90
2023/08/19 02:44:56;;;;;;;3.40;2.80;;;;;;;;;;2568238;23;20478;-91
2023/08/19 02:45:57;;;;;;;3.45;2.55;;;;;;;;;;2153599;22;10001628;-91
2023/08/19 02:46:58;;;;;;;6.07;3.05;;;;;;;;;;2582555;23;20390;-90
2023/08/19 02:47:58;;;;;;;4.32;3.10;;;;;;;;;;2581641;23;20541;-91
2023/08/19 02:48:58;;;;;;;8.73;3.00;;;;;;;;;;2596504;22;20083;-91
2023/08/19 02:49:59;;;;;;;4.00;2.97;;;;;;;;;;2581221;23;20086;-91
2023/08/19 02:50:59;;;;;;;4.82;2.72;;;;;;;;;;2583471;23;20004;-91
2023/08/19 02:52:00;;;;;;;3.60;3.00;;;;;;;;;;2593811;22;20065;-91
2023/08/19 02:53:00;;;;;;;6.32;3.28;;;;;;;;;;2593566;22;20033;-91
2023/08/19 02:54:01;;;;;;;4.35;3.00;;;;;;;;;;2580634;22;20094;-91
2023/08/19 02:55:01;;;;;;;4.13;2.90;;;;;;;;;;2568065;23;20462;-90
2023/08/19 02:56:06;;;;;;;5.32;3.22;;;;;;;;;;2568493;23;20019;-90
2023/08/19 02:57:06;;;;;;;5.10;2.83;;;;;;;;;;2569450;23;20036;-91
2023/08/19 02:58:07;;;;;;;3.50;3.08;;;;;;;;;;2568375;23;20331;-90
2023/08/19 02:59:08;;;;;;;3.58;3.03;;;;;;;;;;2568599;23;20417;-91
2023/08/19 03:00:09;;;;;;;4.68;2.63;;;;;;;;;;2583299;22;20027;-90
2023/08/19 03:01:15;;;;;;;6.30;3.03;;;;;;;;;;2582866;23;20012;-90
2023/08/19 03:02:15;;;;;;;3.78;3.05;;;;;;;;;;2583582;22;20449;-92
2023/08/19 03:03:17;;;;;;;7.80;2.85;;;;;;;;;;2596059;22;20000;-93
2023/08/19 03:04:17;;;;;;;4.38;2.67;;;;;;;;;;2581496;23;20008;-92
2023/08/19 03:05:18;;;;;;;3.75;2.80;;;;;;;;;;2569005;23;20040;-93
2023/08/19 03:06:18;;;;;;;3.75;3.25;;;;;;;;;;2581481;23;20023;-93
2023/08/19 03:07:18;;;;;;;5.13;3.17;;;;;;;;;;2569042;23;20345;-92
2023/08/19 03:08:19;;;;;;;3.40;2.80;;;;;;;;;;2568862;23;20008;-92
2023/08/19 03:09:19;;;;;;;3.05;2.47;;;;;;;;;;2581253;23;20004;-92
2023/08/19 03:10:20;;;;;;;3.97;3.05;;;;;;;;;;2568766;23;20152;-91
2023/08/19 03:11:20;;;;;;;3.38;2.67;;;;;;;;;;2582524;23;20087;-91
2023/08/19 03:12:20;;;;;;;3.45;2.80;;;;;;;;;;2582609;23;20537;-92
2023/08/19 03:13:21;;;;;;;3.45;3.00;;;;;;;;;;2588532;23;20008;-90
2023/08/19 03:14:21;;;;;;;4.47;2.80;;;;;;;;;;2601858;22;20003;-93
2023/08/19 03:15:29;;;;;;;4.48;2.43;;;;;;;;;;1531070;23;10021477;-92
2023/08/19 03:16:29;;;;;;;4.45;3.08;;;;;;;;;;2570310;23;20694;-92
2023/08/19 03:17:29;;;;;;;6.28;3.30;;;;;;;;;;2569375;23;20012;-92
2023/08/19 03:18:30;;;;;;;4.07;3.00;;;;;;;;;;2568932;23;20529;-91
2023/08/19 03:19:30;;;;;;;8.15;4.10;;;;;;;;;;2581562;23;20011;-93
2023/08/19 03:20:31;;;;;;;3.70;2.95;;;;;;;;;;2581574;23;20438;-92
2023/08/19 03:21:31;;;;;;;6.13;3.63;;;;;;;;;;2581877;23;20357;-92
2023/08/19 03:22:32;;;;;;;5.70;3.30;;;;;;;;;;2569052;23;20024;-92
2023/08/19 03:23:32;;;;;;;3.47;2.78;;;;;;;;;;2569165;23;19993;-92
2023/08/19 03:24:33;;;;;;;3.38;3.00;;;;;;;;;;2568978;23;20404;-93
2023/08/19 03:25:33;;;;;;;5.88;3.00;;;;;;;;;;2581540;23;20000;-93
2023/08/19 03:26:34;;;;;;;4.22;2.97;;;;;;;;;;2581243;23;20086;-93
2023/08/19 03:27:34;;;;;;;4.45;3.20;;;;;;;;;;2568393;23;20066;-91
2023/08/19 03:28:35;;;;;;;3.40;3.10;;;;;;;;;;2584736;23;19992;-91
2023/08/19 03:29:36;;;;;;;5.82;3.05;;;;;;;;;;2598574;22;19991;-92
2023/08/19 03:30:36;;;;;;;4.35;3.05;;;;;;;;;;2581413;23;20480;-92
2023/08/19 03:31:36;;;;;;;4.40;3.08;;;;;;;;;;2568948;23;19999;-93
2023/08/19 03:32:37;;;;;;;4.18;2.90;;;;;;;;;;2569154;23;20350;-92
2023/08/19 03:33:41;;;;;;;5.70;3.05;;;;;;;;;;2569018;23;20035;-92
2023/08/19 03:34:42;;;;;;;4.50;3.42;;;;;;;;;;2569807;23;19993;-92
2023/08/19 03:35:43;;;;;;;7.28;3.28;;;;;;;;;;2585221;23;19988;-92
2023/08/19 03:36:43;;;;;;;4.50;3.38;;;;;;;;;;2598707;22;19991;-92
2023/08/19 03:37:44;;;;;;;5.40;3.15;;;;;;;;;;2594682;22;20019;-91
2023/08/19 03:38:44;;;;;;;4.40;3.53;;;;;;;;;;2596844;22;20483;-91
2023/08/19 03:39:44;;;;;;;5.90;3.25;;;;;;;;;;2581621;22;20011;-92
2023/08/19 03:40:45;;;;;;;4.57;3.38;;;;;;;;;;2581539;23;19992;-92
2023/08/19 03:41:46;;;;;;;4.72;3.58;;;;;;;;;;2581436;23;19996;-93
2023/08/19 03:42:46;;;;;;;5.55;3.03;;;;;;;;;;2581596;22;20004;-92
2023/08/19 03:43:46;;;;;;;4.03;3.63;;;;;;;;;;2597486;22;19998;-92
2023/08/19 03:44:47;;;;;;;6.75;3.28;;;;;;;;;;2594181;22;19992;-93
2023/08/19 03:45:47;;;;;;;5.45;3.17;;;;;;;;;;2594459;22;19995;-93
2023/08/19 03:46:47;;;;;;;4.75;3.20;;;;;;;;;;2597972;22;20030;-93
2023/08/19 03:47:48;;;;;;;5.05;3.60;;;;;;;;;;2593426;23;20076;-92
2023/08/19 03:48:48;;;;;;;7.80;3.72;;;;;;;;;;2593436;22;19998;-91
2023/08/19 03:49:50;;;;;;;6.78;3.40;;;;;;;;;;2608398;22;19988;-92
2023/08/19 03:50:50;;;;;;;6.07;4.13;;;;;;;;;;2598821;22;19992;-90
2023/08/19 03:51:51;;;;;;;6.30;3.40;;;;;;;;;;2594166;22;20369;-94
2023/08/19 03:52:51;;;;;;;6.68;3.35;;;;;;;;;;2597044;22;20057;-94
2023/08/19 03:53:52;;;;;;;6.15;3.67;;;;;;;;;;2594093;22;20103;-94
2023/08/19 03:54:52;;;;;;;5.15;2.95;;;;;;;;;;2581732;23;20078;-93
2023/08/19 03:55:53;;;;;;;7.22;3.35;;;;;;;;;;2580603;23;20012;-92
2023/08/19 03:56:53;;;;;;;5.43;3.42;;;;;;;;;;2581512;23;20008;-92
2023/08/19 03:57:54;;;;;;;6.18;3.40;;;;;;;;;;2597473;22;20573;-92
2023/08/19 03:58:55;;;;;;;3.90;3.47;;;;;;;;;;2598479;22;20003;-91
2023/08/19 03:59:55;;;;;;;6.72;3.58;;;;;;;;;;2604656;22;20083;-92
2023/08/19 04:01:06;;;;;;;5.38;3.58;;;;;;;;;;2603496;22;20010;-91
2023/08/19 04:02:06;;;;;;;5.03;3.35;;;;;;;;;;2596390;22;20019;-91
2023/08/19 04:03:07;;;;;;;5.60;3.38;;;;;;;;;;2594775;22;20004;-91
2023/08/19 04:04:08;;;;;;;4.85;3.30;;;;;;;;;;2594463;22;20039;-91
2023/08/19 04:05:11;;;;;;;3.60;3.03;;;;;;;;;;2596896;22;20640;-92
2023/08/19 04:06:11;;;;;;;4.65;3.42;;;;;;;;;;2597211;22;20004;-92
2023/08/19 04:07:11;;;;;;;5.97;2.95;;;;;;;;;;2594499;22;20026;-91
2023/08/19 04:08:12;;;;;;;5.75;3.53;;;;;;;;;;2581924;23;20065;-91
2023/08/19 04:09:12;;;;;;;5.45;3.03;;;;;;;;;;2595951;22;20003;-92
2023/08/19 04:10:12;;;;;;;3.83;3.42;;;;;;;;;;2594368;22;20105;-90
2023/08/19 04:11:13;;;;;;;6.63;3.70;;;;;;;;;;2581662;23;20058;-91
2023/08/19 04:12:13;;;;;;;8.50;3.45;;;;;;;;;;2595809;22;20000;-91
2023/08/19 04:13:14;;;;;;;5.10;2.88;;;;;;;;;;2594495;22;20004;-91
2023/08/19 04:14:14;;;;;;;6.53;3.92;;;;;;;;;;2594481;22;20004;-91
2023/08/19 04:15:14;;;;;;;5.00;3.45;;;;;;;;;;2594603;22;20012;-90
2023/08/19 04:16:15;;;;;;;4.57;3.30;;;;;;;;;;2594576;22;20433;-90
2023/08/19 04:17:16;;;;;;;5.57;3.40;;;;;;;;;;2594847;22;20003;-91
2023/08/19 04:18:16;;;;;;;6.07;3.47;;;;;;;;;;2581580;22;20154;-90
2023/08/19 04:19:16;;;;;;;4.35;3.00;;;;;;;;;;2581827;23;20003;-91
2023/08/19 04:20:17;;;;;;;3.80;3.10;;;;;;;;;;2581769;23;20003;-90
2023/08/19 04:21:18;;;;;;;5.20;3.03;;;;;;;;;;2581916;23;20179;-90
2023/08/19 04:22:18;;;;;;;4.63;2.85;;;;;;;;;;2595409;22;20083;-92
2023/08/19 04:23:18;;;;;;;6.53;3.20;;;;;;;;;;2606994;22;19999;-91
2023/08/19 04:24:19;;;;;;;4.13;3.20;;;;;;;;;;2607219;22;20011;-91
2023/08/19 04:25:19;;;;;;;4.70;3.08;;;;;;;;;;2594475;22;20026;-91
2023/08/19 04:26:20;;;;;;;4.07;3.22;;;;;;;;;;2581816;23;20004;-92
2023/08/19 04:27:22;;;;;;;4.55;3.08;;;;;;;;;;2581584;23;20062;-90
2023/08/19 04:28:22;;;;;;;3.53;2.92;;;;;;;;;;2595246;22;19999;-91
2023/08/19 04:29:22;;;;;;;5.30;3.15;;;;;;;;;;2594489;22;20445;-91
2023/08/19 04:30:23;;;;;;;5.18;3.47;;;;;;;;;;2581693;23;20031;-91
2023/08/19 04:31:23;;;;;;;6.30;3.25;;;;;;;;;;2594660;22;20074;-92
2023/08/19 04:32:23;;;;;;;6.75;3.45;;;;;;;;;;2595488;22;20004;-91
2023/08/19 04:33:24;;;;;;;4.47;3.60;;;;;;;;;;2595986;22;20004;-91
2023/08/19 04:34:25;;;;;;;4.57;3.55;;;;;;;;;;2607034;22;20081;-92
2023/08/19 04:35:30;;;;;;;3.58;3.28;;;;;;;;;;2607599;22;20054;-92
2023/08/19 04:36:32;;;;;;;7.13;3.08;;;;;;;;;;2594308;22;20078;-91
2023/08/19 04:37:33;;;;;;;4.15;3.25;;;;;;;;;;2598620;22;19991;-92
2023/08/19 04:38:33;;;;;;;4.28;3.40;;;;;;;;;;2599073;22;19992;-91
2023/08/19 04:39:34;;;;;;;4.97;3.10;;;;;;;;;;2594014;22;20004;-92
2023/08/19 04:40:35;;;;;;;6.50;3.25;;;;;;;;;;2594487;22;20004;-92
2023/08/19 04:41:35;;;;;;;4.93;3.20;;;;;;;;;;2598632;22;20038;-91
2023/08/19 04:42:36;;;;;;;9.02;3.78;;;;;;;;;;2607229;22;20080;-91
2023/08/19 04:43:36;;;;;;;4.03;3.38;;;;;;;;;;2607271;22;20446;-90
2023/08/19 04:44:37;;;;;;;4.28;3.47;;;;;;;;;;2594205;22;20000;-90
2023/08/19 04:45:38;;;;;;;3.80;3.42;;;;;;;;;;2594336;22;20000;-90
2023/08/19 04:46:38;;;;;;;3.85;3.30;;;;;;;;;;2585336;23;20027;-90
2023/08/19 04:47:38;;;;;;;6.32;3.83;;;;;;;;;;2604208;22;20001;-88
2023/08/19 04:48:39;;;;;;;5.60;3.40;;;;;;;;;;2596274;22;20077;-90
2023/08/19 04:49:39;;;;;;;5.85;3.40;;;;;;;;;;2598631;22;20016;-90
2023/08/19 04:50:40;;;;;;;5.22;3.50;;;;;;;;;;2594270;22;19999;-90
2023/08/19 04:52:31;;;;;;;4.70;3.13;;;;;;;;;;2599305;22;20000;-89
2023/08/19 04:53:33;;;;;;;4.70;3.78;;;;;;;;;;2599579;22;20008;-88
2023/08/19 04:54:33;;;;;;;6.55;4.20;;;;;;;;;;2599128;22;20011;-90
2023/08/19 04:55:34;;;;;;;7.03;3.83;;;;;;;;;;2599262;22;19991;-90
2023/08/19 04:57:16;;;;;;;7.50;3.78;;;;;;;;;;2610799;22;19992;-89
2023/08/19 04:58:32;;;;;;;4.82;3.17;;;;;;;;;;2581332;22;20015;-90
2023/08/19 04:59:32;;;;;;;3.85;3.53;;;;;;;;;;2599543;22;19996;-91
2023/08/19 05:00:32;;;;;;;8.05;4.20;;;;;;;;;;2600041;22;20444;-92
2023/08/19 05:01:33;;;;;;;6.75;4.10;;;;;;;;;;2582017;23;20075;-91
2023/08/19 05:02:33;;;;;;;6.20;4.18;;;;;;;;;;2581649;23;20492;-91
2023/08/19 05:03:34;;;;;;;5.80;4.00;;;;;;;;;;2581489;23;20082;-91
2023/08/19 05:04:34;;;;;;;7.70;4.07;;;;;;;;;;2569349;23;20015;-90
2023/08/19 05:05:35;;;;;;;5.68;3.85;;;;;;;;;;2585781;23;19993;-90
2023/08/19 05:06:36;;;;;;;6.53;3.65;;;;;;;;;;2598896;22;20433;-90
2023/08/19 05:07:39;;;;;;;5.95;4.35;;;;;;;;;;2598696;22;19992;-91
2023/08/19 05:08:39;;;;;;;5.90;3.70;;;;;;;;;;2581684;23;20000;-91
2023/08/19 05:09:40;;;;;;;5.68;3.55;;;;;;;;;;2568887;23;20028;-91
2023/08/19 05:10:40;;;;;;;4.50;4.10;;;;;;;;;;2586727;22;20012;-90
2023/08/19 05:11:41;;;;;;;5.50;3.72;;;;;;;;;;2593998;22;20485;-91
2023/08/19 05:12:44;;;;;;;8.25;4.50;;;;;;;;;;2597783;22;20393;-90
2023/08/19 05:13:44;;;;;;;6.10;3.80;;;;;;;;;;2598549;22;20328;-90
2023/08/19 05:14:48;;;;;;;9.63;4.35;;;;;;;;;;2594595;22;20083;-90
2023/08/19 05:15:51;;;;;;;5.55;4.00;;;;;;;;;;2596690;22;20128;-90
2023/08/19 05:16:58;;;;;;;6.90;4.18;;;;;;;;;;2597768;22;20090;-90
2023/08/19 05:18:05;;;;;;;7.38;4.50;;;;;;;;;;2594359;22;20012;-91
2023/08/19 05:20:35;;;;;;;8.45;4.13;;;;;;;;;;2594429;22;20003;-92
2023/08/19 05:21:35;;;;;;;7.05;4.00;;;;;;;;;;2581147;23;20425;-92
2023/08/19 05:22:35;;;;;;;7.90;4.07;;;;;;;;;;2568599;23;19996;-91
2023/08/19 05:23:36;;;;;;;8.32;4.20;;;;;;;;;;2568931;23;19996;-91
2023/08/19 05:24:37;;;;;;;8.82;4.78;;;;;;;;;;2568923;23;20088;-90
2023/08/19 05:25:37;;;;;;;9.65;4.72;;;;;;;;;;2585428;22;19992;-90
2023/08/19 05:26:39;;;;;;;10.95;5.25;;;;;;;;;;2599874;22;20179;-91
2023/08/19 05:27:39;;;;;;;10.25;5.07;;;;;;;;;;2601236;22;20026;-91
2023/08/19 05:28:40;;;;;;;7.85;5.32;;;;;;;;;;2583064;23;20032;-89
2023/08/19 05:29:40;;;;;;;7.28;4.95;;;;;;;;;;2582011;23;20476;-89
2023/08/19 05:30:40;;;;;;;6.80;4.18;;;;;;;;;;2581850;23;20012;-90
2023/08/19 05:31:42;;;;;;;7.95;4.60;;;;;;;;;;2569734;23;20707;-89
2023/08/19 05:32:42;;;;;;;8.35;4.05;;;;;;;;;;2587196;22;20501;-90
2023/08/19 05:33:42;;;;;;;10.05;5.28;;;;;;;;;;2587543;23;20046;-89
2023/08/19 05:34:43;;;;;;;8.68;4.70;;;;;;;;;;2573962;23;20003;-90
2023/08/19 05:35:43;;;;;;;8.38;4.97;;;;;;;;;;2133344;23;10162799;-89
2023/08/19 05:36:44;;;;;;;7.38;4.80;;;;;;;;;;2584632;23;19999;-90
2023/08/19 05:37:44;;;;;;;9.98;4.97;;;;;;;;;;2581238;23;20086;-90
2023/08/19 05:38:45;;;;;;;11.65;4.78;;;;;;;;;;2568898;23;20512;-90
2023/08/19 05:39:45;;;;;;;7.43;4.25;;;;;;;;;;2584630;23;19988;-90
2023/08/19 05:40:46;;;;;;;6.20;4.63;;;;;;;;;;2598129;22;20382;-90
2023/08/19 05:41:46;;;;;;;5.80;4.22;;;;;;;;;;2581264;23;20449;-89
2023/08/19 05:42:47;;;;;;;8.05;4.03;;;;;;;;;;2568557;23;20050;-89
2023/08/19 05:43:47;;;;;;;8.57;4.88;;;;;;;;;;2584423;22;20346;-90
2023/08/19 05:44:48;;;;;;;8.52;3.92;;;;;;;;;;2581100;23;20523;-90
2023/08/19 05:45:54;;;;;;;5.72;3.67;;;;;;;;;;2568894;23;20087;-91
2023/08/19 05:46:55;;;;;;;6.85;3.97;;;;;;;;;;2585507;22;20054;-91
2023/08/19 05:47:55;;;;;;;8.35;4.75;;;;;;;;;;2597636;22;20353;-91
2023/08/19 05:48:55;;;;;;;8.80;4.20;;;;;;;;;;2597638;22;20003;-89
2023/08/19 05:49:56;;;;;;;8.02;3.90;;;;;;;;;;2597518;22;20003;-91
2023/08/19 05:50:56;;;;;;;7.38;4.53;;;;;;;;;;2581315;23;20069;-90
2023/08/19 05:51:57;;;;;;;4.90;3.80;;;;;;;;;;2569002;23;20009;-90
2023/08/19 05:52:57;;;;;;;7.13;3.88;;;;;;;;;;2584048;23;20061;-90
2023/08/19 05:54:01;;;;;;;6.90;6.25;;;;;;;;;;2581536;23;20087;-89
2023/08/19 05:55:01;;;;;;;7.90;4.10;;;;;;;;;;2582384;22;20008;-90
2023/08/19 05:56:02;;;;;;;6.55;4.10;;;;;;;;;;2593979;22;20516;-90
2023/08/19 05:57:02;;;;;;;10.40;4.97;;;;;;;;;;2596655;22;20000;-89
2023/08/19 05:58:03;;;;;;;5.60;4.00;;;;;;;;;;2597260;22;20003;-89
2023/08/19 05:59:03;;;;;;;7.97;4.95;;;;;;;;;;2597055;22;20433;-90
2023/08/19 06:00:06;;;;;;;5.43;4.10;;;;;;;;;;2581157;23;20368;-90
2023/08/19 06:01:07;;;;;;;4.38;3.80;;;;;;;;;;2583786;22;20011;-90
2023/08/19 06:02:07;;;;;;;6.10;3.40;;;;;;;;;;2581460;23;20004;-90
2023/08/19 06:03:08;;;;;;;7.03;4.53;;;;;;;;;;2583123;23;20004;-90
2023/08/19 06:04:08;;;;;;;8.57;4.90;;;;;;;;;;2596488;22;20437;-90
2023/08/19 06:05:09;;;;;;;5.60;3.85;;;;;;;;;;2594065;22;20022;-90
2023/08/19 06:06:10;;;;;;;7.57;4.57;;;;;;;;;;2597471;22;20012;-91
2023/08/19 06:07:11;;;;;;;5.40;4.00;;;;;;;;;;2593085;22;20000;-90
2023/08/19 06:08:12;;;;;;;4.82;4.32;;;;;;;;;;2580300;22;20000;-90
2023/08/19 06:09:12;;;;;;;5.82;3.90;;;;;;;;;;2580371;23;20004;-90
2023/08/19 06:10:13;;;;;;;6.70;4.05;;;;;;;;;;2569556;23;20008;-91
2023/08/19 06:11:13;;;;;;;4.78;3.63;;;;;;;;;;2569131;23;20043;-90
2023/08/19 06:12:14;;;;;;;4.43;3.92;;;;;;;;;;2581310;23;20074;-90